sensor_id;sensor_type;location;lat;lon;timestamp;P1;durP1;ratioP1;P2;durP2;ratioP2
41719;SDS011;27405;53.316;-6.294;2023-01-15T00:01:04;8.20;;;1.92;;
41719;SDS011;27405;53.316;-6.294;2023-01-15T00:03:30;4.63;;;1.90;;
41719;SDS011;27405;53.316;-6.294;2023-01-15T00:06:02;6.13;;;1.70;;
41719;SDS011;27405;53.316;-6.294;2023-01-15T00:08:28;7.55;;;1.55;;
41719;SDS011;27405;53.316;-6.294;2023-01-15T00:10:57;7.65;;;1.70;;
41719;SDS011;27405;53.316;-6.294;2023-01-15T00:13:26;7.25;;;1.50;;
41719;SDS011;27405;53.316;-6.294;2023-01-15T00:15:53;7.75;;;1.65;;
41719;SDS011;27405;53.316;-6.294;2023-01-15T00:18:18;6.50;;;1.73;;
41719;SDS011;27405;53.316;-6.294;2023-01-15T00:20:44;5.65;;;1.55;;
41719;SDS011;27405;53.316;-6.294;2023-01-15T00:23:10;6.03;;;1.98;;
41719;SDS011;27405;53.316;-6.294;2023-01-15T00:25:55;4.40;;;1.50;;
41719;SDS011;27405;53.316;-6.294;2023-01-15T00:28:39;4.18;;;1.40;;
41719;SDS011;27405;53.316;-6.294;2023-01-15T00:31:05;6.70;;;1.50;;
41719;SDS011;27405;53.316;-6.294;2023-01-15T00:33:31;4.53;;;1.17;;
41719;SDS011;27405;53.316;-6.294;2023-01-15T00:35:56;5.07;;;1.25;;
41719;SDS011;27405;53.316;-6.294;2023-01-15T00:38:22;6.38;;;1.60;;
41719;SDS011;27405;53.316;-6.294;2023-01-15T00:40:48;6.40;;;1.30;;
41719;SDS011;27405;53.316;-6.294;2023-01-15T00:43:16;7.85;;;1.80;;
41719;SDS011;27405;53.316;-6.294;2023-01-15T00:45:42;7.95;;;1.83;;
41719;SDS011;27405;53.316;-6.294;2023-01-15T00:48:08;4.60;;;1.60;;
41719;SDS011;27405;53.316;-6.294;2023-01-15T00:50:34;7.63;;;1.92;;
41719;SDS011;27405;53.316;-6.294;2023-01-15T00:52:59;6.60;;;1.50;;
41719;SDS011;27405;53.316;-6.294;2023-01-15T00:55:25;10.25;;;1.80;;
41719;SDS011;27405;53.316;-6.294;2023-01-15T00:57:50;7.70;;;1.65;;
41719;SDS011;27405;53.316;-6.294;2023-01-15T01:00:16;5.20;;;1.50;;
41719;SDS011;27405;53.316;-6.294;2023-01-15T01:02:42;4.70;;;1.17;;
41719;SDS011;27405;53.316;-6.294;2023-01-15T01:05:08;9.57;;;1.95;;
41719;SDS011;27405;53.316;-6.294;2023-01-15T01:07:33;4.85;;;1.48;;
41719;SDS011;27405;53.316;-6.294;2023-01-15T01:09:59;5.78;;;1.20;;
41719;SDS011;27405;53.316;-6.294;2023-01-15T01:12:25;5.22;;;1.20;;
41719;SDS011;27405;53.316;-6.294;2023-01-15T01:14:50;2.97;;;0.80;;
41719;SDS011;27405;53.316;-6.294;2023-01-15T01:17:16;8.82;;;0.98;;
41719;SDS011;27405;53.316;-6.294;2023-01-15T01:19:42;4.25;;;1.00;;
41719;SDS011;27405;53.316;-6.294;2023-01-15T01:22:07;5.97;;;1.30;;
41719;SDS011;27405;53.316;-6.294;2023-01-15T01:24:33;3.20;;;1.10;;
41719;SDS011;27405;53.316;-6.294;2023-01-15T01:26:59;6.65;;;1.73;;
41719;SDS011;27405;53.316;-6.294;2023-01-15T01:29:24;3.60;;;1.13;;
41719;SDS011;27405;53.316;-6.294;2023-01-15T01:31:50;2.70;;;0.77;;
41719;SDS011;27405;53.316;-6.294;2023-01-15T01:34:16;4.43;;;1.02;;
41719;SDS011;27405;53.316;-6.294;2023-01-15T01:36:42;6.32;;;1.20;;
41719;SDS011;27405;53.316;-6.294;2023-01-15T01:39:12;4.68;;;0.80;;
41719;SDS011;27405;53.316;-6.294;2023-01-15T01:41:39;4.25;;;0.93;;
41719;SDS011;27405;53.316;-6.294;2023-01-15T01:46:57;3.95;;;0.90;;
41719;SDS011;27405;53.316;-6.294;2023-01-15T01:49:25;2.15;;;1.20;;
41719;SDS011;27405;53.316;-6.294;2023-01-15T01:51:57;5.90;;;1.38;;
41719;SDS011;27405;53.316;-6.294;2023-01-15T01:54:26;5.53;;;0.80;;
41719;SDS011;27405;53.316;-6.294;2023-01-15T01:56:54;3.17;;;0.82;;
41719;SDS011;27405;53.316;-6.294;2023-01-15T01:59:21;7.32;;;0.75;;
41719;SDS011;27405;53.316;-6.294;2023-01-15T02:01:49;3.37;;;0.93;;
41719;SDS011;27405;53.316;-6.294;2023-01-15T02:04:15;6.07;;;1.00;;
41719;SDS011;27405;53.316;-6.294;2023-01-15T02:06:44;2.88;;;0.90;;
41719;SDS011;27405;53.316;-6.294;2023-01-15T02:09:10;2.58;;;1.13;;
41719;SDS011;27405;53.316;-6.294;2023-01-15T02:11:36;5.47;;;0.85;;
41719;SDS011;27405;53.316;-6.294;2023-01-15T02:16:51;3.63;;;0.82;;
41719;SDS011;27405;53.316;-6.294;2023-01-15T02:19:49;5.18;;;0.90;;
41719;SDS011;27405;53.316;-6.294;2023-01-15T02:25:27;4.55;;;1.27;;
41719;SDS011;27405;53.316;-6.294;2023-01-15T02:28:06;7.32;;;1.38;;
41719;SDS011;27405;53.316;-6.294;2023-01-15T02:30:40;3.53;;;0.80;;
41719;SDS011;27405;53.316;-6.294;2023-01-15T02:33:17;6.00;;;1.50;;
41719;SDS011;27405;53.316;-6.294;2023-01-15T02:35:55;5.73;;;1.30;;
41719;SDS011;27405;53.316;-6.294;2023-01-15T02:38:24;4.72;;;1.33;;
41719;SDS011;27405;53.316;-6.294;2023-01-15T02:40:54;7.35;;;1.70;;
41719;SDS011;27405;53.316;-6.294;2023-01-15T02:43:23;8.85;;;1.60;;
41719;SDS011;27405;53.316;-6.294;2023-01-15T02:45:52;8.80;;;1.23;;
41719;SDS011;27405;53.316;-6.294;2023-01-15T02:48:20;8.05;;;1.55;;
41719;SDS011;27405;53.316;-6.294;2023-01-15T02:50:50;14.05;;;1.70;;
41719;SDS011;27405;53.316;-6.294;2023-01-15T02:53:22;7.85;;;1.63;;
41719;SDS011;27405;53.316;-6.294;2023-01-15T02:55:51;9.20;;;1.50;;
41719;SDS011;27405;53.316;-6.294;2023-01-15T02:58:22;11.48;;;1.60;;
41719;SDS011;27405;53.316;-6.294;2023-01-15T03:00:51;15.75;;;1.40;;
41719;SDS011;27405;53.316;-6.294;2023-01-15T03:03:21;8.52;;;1.50;;
41719;SDS011;27405;53.316;-6.294;2023-01-15T03:05:55;6.40;;;1.30;;
41719;SDS011;27405;53.316;-6.294;2023-01-15T03:08:26;7.10;;;1.05;;
41719;SDS011;27405;53.316;-6.294;2023-01-15T03:11:01;10.38;;;1.50;;
41719;SDS011;27405;53.316;-6.294;2023-01-15T03:24:46;11.18;;;1.55;;
41719;SDS011;27405;53.316;-6.294;2023-01-15T03:27:18;11.02;;;1.70;;
41719;SDS011;27405;53.316;-6.294;2023-01-15T03:29:46;9.30;;;1.50;;
41719;SDS011;27405;53.316;-6.294;2023-01-15T03:32:16;12.73;;;1.70;;
41719;SDS011;27405;53.316;-6.294;2023-01-15T03:34:47;6.68;;;1.35;;
41719;SDS011;27405;53.316;-6.294;2023-01-15T03:37:15;12.27;;;1.55;;
41719;SDS011;27405;53.316;-6.294;2023-01-15T03:39:42;7.97;;;1.50;;
41719;SDS011;27405;53.316;-6.294;2023-01-15T03:42:19;12.55;;;2.20;;
41719;SDS011;27405;53.316;-6.294;2023-01-15T03:48:21;13.02;;;1.38;;
41719;SDS011;27405;53.316;-6.294;2023-01-15T03:50:46;6.40;;;1.27;;
41719;SDS011;27405;53.316;-6.294;2023-01-15T03:55:46;6.10;;;1.30;;
41719;SDS011;27405;53.316;-6.294;2023-01-15T03:59:03;12.35;;;1.50;;
41719;SDS011;27405;53.316;-6.294;2023-01-15T04:01:38;8.57;;;2.05;;
41719;SDS011;27405;53.316;-6.294;2023-01-15T04:04:06;10.05;;;1.27;;
41719;SDS011;27405;53.316;-6.294;2023-01-15T04:06:34;10.30;;;1.50;;
41719;SDS011;27405;53.316;-6.294;2023-01-15T04:09:03;10.43;;;1.50;;
41719;SDS011;27405;53.316;-6.294;2023-01-15T04:11:32;10.38;;;1.77;;
41719;SDS011;27405;53.316;-6.294;2023-01-15T04:13:57;14.45;;;1.83;;
41719;SDS011;27405;53.316;-6.294;2023-01-15T04:16:24;10.43;;;1.55;;
41719;SDS011;27405;53.316;-6.294;2023-01-15T04:18:52;12.32;;;1.60;;
41719;SDS011;27405;53.316;-6.294;2023-01-15T04:21:18;13.57;;;1.65;;
41719;SDS011;27405;53.316;-6.294;2023-01-15T04:23:44;12.95;;;1.80;;
41719;SDS011;27405;53.316;-6.294;2023-01-15T04:26:10;14.68;;;2.45;;
41719;SDS011;27405;53.316;-6.294;2023-01-15T04:28:36;13.20;;;1.55;;
41719;SDS011;27405;53.316;-6.294;2023-01-15T04:31:02;14.50;;;1.90;;
41719;SDS011;27405;53.316;-6.294;2023-01-15T04:33:28;9.85;;;1.40;;
41719;SDS011;27405;53.316;-6.294;2023-01-15T04:35:53;10.15;;;1.60;;
41719;SDS011;27405;53.316;-6.294;2023-01-15T04:38:19;9.73;;;1.50;;
41719;SDS011;27405;53.316;-6.294;2023-01-15T04:40:45;6.35;;;1.42;;
41719;SDS011;27405;53.316;-6.294;2023-01-15T04:43:29;13.10;;;1.65;;
41719;SDS011;27405;53.316;-6.294;2023-01-15T04:46:13;19.15;;;2.55;;
41719;SDS011;27405;53.316;-6.294;2023-01-15T04:48:39;12.68;;;2.22;;
41719;SDS011;27405;53.316;-6.294;2023-01-15T04:51:05;13.38;;;2.00;;
41719;SDS011;27405;53.316;-6.294;2023-01-15T04:53:32;9.25;;;1.73;;
41719;SDS011;27405;53.316;-6.294;2023-01-15T04:56:02;12.30;;;2.58;;
41719;SDS011;27405;53.316;-6.294;2023-01-15T04:58:29;19.48;;;2.40;;
41719;SDS011;27405;53.316;-6.294;2023-01-15T05:00:55;16.50;;;1.95;;
41719;SDS011;27405;53.316;-6.294;2023-01-15T05:03:21;16.67;;;2.50;;
41719;SDS011;27405;53.316;-6.294;2023-01-15T05:05:47;15.10;;;2.50;;
41719;SDS011;27405;53.316;-6.294;2023-01-15T05:08:14;11.75;;;1.90;;
41719;SDS011;27405;53.316;-6.294;2023-01-15T05:10:40;9.90;;;1.92;;
41719;SDS011;27405;53.316;-6.294;2023-01-15T05:13:06;15.50;;;2.45;;
41719;SDS011;27405;53.316;-6.294;2023-01-15T05:15:31;12.07;;;1.65;;
41719;SDS011;27405;53.316;-6.294;2023-01-15T05:17:57;10.48;;;1.92;;
41719;SDS011;27405;53.316;-6.294;2023-01-15T05:20:22;17.75;;;2.17;;
41719;SDS011;27405;53.316;-6.294;2023-01-15T05:22:48;12.50;;;1.80;;
41719;SDS011;27405;53.316;-6.294;2023-01-15T05:25:14;13.73;;;2.28;;
41719;SDS011;27405;53.316;-6.294;2023-01-15T05:27:39;9.48;;;1.70;;
41719;SDS011;27405;53.316;-6.294;2023-01-15T05:30:07;15.57;;;1.98;;
41719;SDS011;27405;53.316;-6.294;2023-01-15T05:32:33;13.07;;;2.13;;
41719;SDS011;27405;53.316;-6.294;2023-01-15T05:34:58;11.85;;;1.70;;
41719;SDS011;27405;53.316;-6.294;2023-01-15T05:37:24;19.95;;;2.08;;
41719;SDS011;27405;53.316;-6.294;2023-01-15T05:39:50;9.80;;;1.63;;
41719;SDS011;27405;53.316;-6.294;2023-01-15T05:42:15;15.80;;;2.50;;
41719;SDS011;27405;53.316;-6.294;2023-01-15T05:44:41;15.10;;;2.30;;
41719;SDS011;27405;53.316;-6.294;2023-01-15T05:47:07;11.82;;;1.60;;
41719;SDS011;27405;53.316;-6.294;2023-01-15T05:49:34;18.02;;;2.15;;
41719;SDS011;27405;53.316;-6.294;2023-01-15T05:52:00;12.45;;;2.08;;
41719;SDS011;27405;53.316;-6.294;2023-01-15T05:54:29;13.00;;;2.00;;
41719;SDS011;27405;53.316;-6.294;2023-01-15T05:56:56;18.98;;;2.10;;
41719;SDS011;27405;53.316;-6.294;2023-01-15T05:59:23;11.75;;;2.33;;
41719;SDS011;27405;53.316;-6.294;2023-01-15T06:01:50;12.13;;;1.80;;
41719;SDS011;27405;53.316;-6.294;2023-01-15T06:04:16;14.45;;;2.10;;
41719;SDS011;27405;53.316;-6.294;2023-01-15T06:06:45;12.43;;;1.75;;
41719;SDS011;27405;53.316;-6.294;2023-01-15T06:09:11;12.50;;;1.83;;
41719;SDS011;27405;53.316;-6.294;2023-01-15T06:11:38;8.63;;;1.73;;
41719;SDS011;27405;53.316;-6.294;2023-01-15T06:14:04;16.17;;;2.35;;
41719;SDS011;27405;53.316;-6.294;2023-01-15T06:16:30;16.63;;;2.20;;
41719;SDS011;27405;53.316;-6.294;2023-01-15T06:18:59;15.55;;;2.03;;
41719;SDS011;27405;53.316;-6.294;2023-01-15T06:21:28;13.80;;;2.63;;
41719;SDS011;27405;53.316;-6.294;2023-01-15T06:23:54;12.43;;;1.90;;
41719;SDS011;27405;53.316;-6.294;2023-01-15T06:26:20;16.90;;;2.05;;
41719;SDS011;27405;53.316;-6.294;2023-01-15T06:28:46;17.63;;;3.05;;
41719;SDS011;27405;53.316;-6.294;2023-01-15T06:31:13;12.38;;;2.17;;
41719;SDS011;27405;53.316;-6.294;2023-01-15T06:33:41;15.23;;;2.35;;
41719;SDS011;27405;53.316;-6.294;2023-01-15T06:36:08;12.90;;;1.90;;
41719;SDS011;27405;53.316;-6.294;2023-01-15T06:38:47;17.40;;;2.65;;
41719;SDS011;27405;53.316;-6.294;2023-01-15T06:41:14;18.83;;;2.45;;
41719;SDS011;27405;53.316;-6.294;2023-01-15T06:44:03;14.07;;;2.60;;
41719;SDS011;27405;53.316;-6.294;2023-01-15T06:46:48;20.63;;;2.85;;
41719;SDS011;27405;53.316;-6.294;2023-01-15T06:49:33;14.15;;;2.10;;
41719;SDS011;27405;53.316;-6.294;2023-01-15T06:52:00;20.88;;;2.88;;
41719;SDS011;27405;53.316;-6.294;2023-01-15T06:54:27;17.10;;;2.30;;
41719;SDS011;27405;53.316;-6.294;2023-01-15T06:56:53;19.50;;;2.92;;
41719;SDS011;27405;53.316;-6.294;2023-01-15T06:59:18;17.08;;;2.55;;
41719;SDS011;27405;53.316;-6.294;2023-01-15T07:01:44;24.05;;;3.13;;
41719;SDS011;27405;53.316;-6.294;2023-01-15T07:04:10;13.90;;;2.30;;
41719;SDS011;27405;53.316;-6.294;2023-01-15T07:06:36;20.05;;;2.83;;
41719;SDS011;27405;53.316;-6.294;2023-01-15T07:09:02;14.57;;;2.17;;
41719;SDS011;27405;53.316;-6.294;2023-01-15T07:11:28;22.75;;;3.08;;
41719;SDS011;27405;53.316;-6.294;2023-01-15T07:13:53;20.73;;;3.40;;
41719;SDS011;27405;53.316;-6.294;2023-01-15T07:16:32;19.27;;;2.42;;
41719;SDS011;27405;53.316;-6.294;2023-01-15T07:18:58;17.38;;;2.75;;
41719;SDS011;27405;53.316;-6.294;2023-01-15T07:21:23;20.80;;;2.70;;
41719;SDS011;27405;53.316;-6.294;2023-01-15T07:23:49;23.58;;;3.10;;
41719;SDS011;27405;53.316;-6.294;2023-01-15T07:26:15;21.30;;;2.45;;
41719;SDS011;27405;53.316;-6.294;2023-01-15T07:28:40;20.20;;;2.55;;
41719;SDS011;27405;53.316;-6.294;2023-01-15T07:31:06;20.40;;;3.05;;
41719;SDS011;27405;53.316;-6.294;2023-01-15T07:33:32;18.90;;;2.45;;
41719;SDS011;27405;53.316;-6.294;2023-01-15T07:36:00;23.88;;;2.80;;
41719;SDS011;27405;53.316;-6.294;2023-01-15T07:38:27;23.35;;;2.83;;
41719;SDS011;27405;53.316;-6.294;2023-01-15T07:40:55;24.02;;;3.08;;
41719;SDS011;27405;53.316;-6.294;2023-01-15T07:43:39;16.98;;;2.97;;
41719;SDS011;27405;53.316;-6.294;2023-01-15T07:46:23;18.38;;;2.90;;
41719;SDS011;27405;53.316;-6.294;2023-01-15T07:49:09;22.60;;;3.30;;
41719;SDS011;27405;53.316;-6.294;2023-01-15T07:51:53;19.13;;;2.78;;
41719;SDS011;27405;53.316;-6.294;2023-01-15T07:54:18;19.80;;;2.42;;
41719;SDS011;27405;53.316;-6.294;2023-01-15T07:56:44;19.50;;;2.88;;
41719;SDS011;27405;53.316;-6.294;2023-01-15T07:59:10;19.48;;;3.50;;
41719;SDS011;27405;53.316;-6.294;2023-01-15T08:01:36;25.98;;;3.63;;
41719;SDS011;27405;53.316;-6.294;2023-01-15T08:04:01;21.23;;;3.03;;
41719;SDS011;27405;53.316;-6.294;2023-01-15T08:06:27;24.95;;;2.72;;
41719;SDS011;27405;53.316;-6.294;2023-01-15T08:08:53;16.15;;;3.03;;
41719;SDS011;27405;53.316;-6.294;2023-01-15T08:11:18;21.02;;;2.75;;
41719;SDS011;27405;53.316;-6.294;2023-01-15T08:14:02;20.17;;;2.90;;
41719;SDS011;27405;53.316;-6.294;2023-01-15T08:16:47;21.33;;;3.30;;
41719;SDS011;27405;53.316;-6.294;2023-01-15T08:19:12;22.60;;;3.60;;
41719;SDS011;27405;53.316;-6.294;2023-01-15T08:21:38;25.85;;;3.55;;
41719;SDS011;27405;53.316;-6.294;2023-01-15T08:24:04;21.13;;;3.47;;
41719;SDS011;27405;53.316;-6.294;2023-01-15T08:26:30;21.60;;;3.53;;
41719;SDS011;27405;53.316;-6.294;2023-01-15T08:28:55;18.50;;;2.90;;
41719;SDS011;27405;53.316;-6.294;2023-01-15T08:31:21;23.88;;;3.60;;
41719;SDS011;27405;53.316;-6.294;2023-01-15T08:33:47;22.80;;;3.10;;
41719;SDS011;27405;53.316;-6.294;2023-01-15T08:36:12;17.45;;;2.53;;
41719;SDS011;27405;53.316;-6.294;2023-01-15T08:38:39;27.23;;;3.50;;
41719;SDS011;27405;53.316;-6.294;2023-01-15T08:41:05;26.13;;;3.30;;
41719;SDS011;27405;53.316;-6.294;2023-01-15T08:43:34;21.17;;;2.90;;
41719;SDS011;27405;53.316;-6.294;2023-01-15T08:46:00;27.48;;;3.35;;
41719;SDS011;27405;53.316;-6.294;2023-01-15T08:48:29;24.07;;;3.40;;
41719;SDS011;27405;53.316;-6.294;2023-01-15T08:50:55;18.20;;;3.33;;
41719;SDS011;27405;53.316;-6.294;2023-01-15T08:53:21;21.30;;;3.03;;
41719;SDS011;27405;53.316;-6.294;2023-01-15T08:55:48;24.50;;;4.22;;
41719;SDS011;27405;53.316;-6.294;2023-01-15T08:58:14;19.85;;;3.28;;
41719;SDS011;27405;53.316;-6.294;2023-01-15T09:00:42;17.60;;;2.83;;
41719;SDS011;27405;53.316;-6.294;2023-01-15T09:03:08;21.48;;;2.75;;
41719;SDS011;27405;53.316;-6.294;2023-01-15T09:05:35;15.63;;;3.00;;
41719;SDS011;27405;53.316;-6.294;2023-01-15T09:08:01;20.33;;;3.08;;
41719;SDS011;27405;53.316;-6.294;2023-01-15T09:10:27;22.55;;;3.53;;
41719;SDS011;27405;53.316;-6.294;2023-01-15T09:12:53;22.35;;;2.58;;
41719;SDS011;27405;53.316;-6.294;2023-01-15T09:15:19;24.83;;;3.28;;
41719;SDS011;27405;53.316;-6.294;2023-01-15T09:17:44;23.92;;;6.38;;
41719;SDS011;27405;53.316;-6.294;2023-01-15T09:20:11;23.52;;;3.75;;
41719;SDS011;27405;53.316;-6.294;2023-01-15T09:22:38;18.30;;;2.92;;
41719;SDS011;27405;53.316;-6.294;2023-01-15T09:25:04;23.35;;;3.70;;
41719;SDS011;27405;53.316;-6.294;2023-01-15T09:27:30;28.20;;;3.83;;
41719;SDS011;27405;53.316;-6.294;2023-01-15T09:29:58;20.75;;;2.72;;
41719;SDS011;27405;53.316;-6.294;2023-01-15T09:32:23;21.05;;;3.05;;
41719;SDS011;27405;53.316;-6.294;2023-01-15T09:34:49;25.48;;;3.80;;
41719;SDS011;27405;53.316;-6.294;2023-01-15T09:37:15;16.08;;;2.53;;
41719;SDS011;27405;53.316;-6.294;2023-01-15T09:39:40;21.70;;;2.90;;
41719;SDS011;27405;53.316;-6.294;2023-01-15T09:45:06;20.42;;;3.22;;
41719;SDS011;27405;53.316;-6.294;2023-01-15T09:47:41;21.55;;;3.28;;
41719;SDS011;27405;53.316;-6.294;2023-01-15T09:55:45;21.20;;;3.20;;
41719;SDS011;27405;53.316;-6.294;2023-01-15T09:58:14;20.45;;;2.88;;
41719;SDS011;27405;53.316;-6.294;2023-01-15T10:00:43;21.75;;;3.58;;
41719;SDS011;27405;53.316;-6.294;2023-01-15T10:06:19;12.60;;;2.92;;
41719;SDS011;27405;53.316;-6.294;2023-01-15T10:08:48;20.02;;;3.20;;
41719;SDS011;27405;53.316;-6.294;2023-01-15T10:14:00;21.98;;;3.55;;
41719;SDS011;27405;53.316;-6.294;2023-01-15T10:16:32;23.15;;;3.78;;
41719;SDS011;27405;53.316;-6.294;2023-01-15T10:18:58;21.35;;;3.97;;
41719;SDS011;27405;53.316;-6.294;2023-01-15T10:24:40;17.95;;;3.58;;
41719;SDS011;27405;53.316;-6.294;2023-01-15T10:27:14;20.95;;;3.83;;
41719;SDS011;27405;53.316;-6.294;2023-01-15T10:29:45;20.40;;;4.80;;
41719;SDS011;27405;53.316;-6.294;2023-01-15T10:40:12;20.13;;;5.15;;
41719;SDS011;27405;53.316;-6.294;2023-01-15T10:46:06;22.88;;;5.75;;
41719;SDS011;27405;53.316;-6.294;2023-01-15T10:48:51;21.08;;;5.97;;
41719;SDS011;27405;53.316;-6.294;2023-01-15T10:51:31;22.77;;;6.28;;
41719;SDS011;27405;53.316;-6.294;2023-01-15T10:54:11;21.70;;;5.50;;
41719;SDS011;27405;53.316;-6.294;2023-01-15T10:56:47;26.60;;;6.85;;
41719;SDS011;27405;53.316;-6.294;2023-01-15T11:02:19;23.00;;;6.70;;
41719;SDS011;27405;53.316;-6.294;2023-01-15T11:04:56;19.67;;;7.55;;
41719;SDS011;27405;53.316;-6.294;2023-01-15T11:07:23;18.60;;;6.40;;
41719;SDS011;27405;53.316;-6.294;2023-01-15T11:10:06;20.65;;;6.80;;
41719;SDS011;27405;53.316;-6.294;2023-01-15T11:12:38;16.58;;;6.30;;
41719;SDS011;27405;53.316;-6.294;2023-01-15T11:15:24;24.08;;;8.35;;
41719;SDS011;27405;53.316;-6.294;2023-01-15T11:18:13;18.83;;;6.40;;
41719;SDS011;27405;53.316;-6.294;2023-01-15T11:21:02;21.15;;;7.85;;
41719;SDS011;27405;53.316;-6.294;2023-01-15T11:23:34;21.80;;;6.53;;
41719;SDS011;27405;53.316;-6.294;2023-01-15T11:26:00;20.85;;;7.00;;
41719;SDS011;27405;53.316;-6.294;2023-01-15T11:28:38;24.77;;;6.65;;
41719;SDS011;27405;53.316;-6.294;2023-01-15T11:31:07;23.08;;;7.40;;
41719;SDS011;27405;53.316;-6.294;2023-01-15T11:33:36;22.75;;;6.30;;
41719;SDS011;27405;53.316;-6.294;2023-01-15T11:36:04;20.80;;;6.32;;
41719;SDS011;27405;53.316;-6.294;2023-01-15T11:38:43;19.52;;;6.82;;
41719;SDS011;27405;53.316;-6.294;2023-01-15T11:41:43;20.00;;;5.97;;
41719;SDS011;27405;53.316;-6.294;2023-01-15T11:44:21;17.35;;;4.68;;
41719;SDS011;27405;53.316;-6.294;2023-01-15T11:47:12;19.00;;;4.28;;
41719;SDS011;27405;53.316;-6.294;2023-01-15T11:49:59;17.50;;;5.57;;
41719;SDS011;27405;53.316;-6.294;2023-01-15T11:52:45;23.75;;;5.80;;
41719;SDS011;27405;53.316;-6.294;2023-01-15T11:55:16;18.13;;;6.10;;
41719;SDS011;27405;53.316;-6.294;2023-01-15T11:57:47;23.10;;;6.47;;
41719;SDS011;27405;53.316;-6.294;2023-01-15T12:00:24;23.33;;;8.13;;
41719;SDS011;27405;53.316;-6.294;2023-01-15T12:03:20;24.13;;;8.00;;
41719;SDS011;27405;53.316;-6.294;2023-01-15T12:05:52;21.85;;;9.30;;
41719;SDS011;27405;53.316;-6.294;2023-01-15T12:10:57;23.55;;;10.13;;
41719;SDS011;27405;53.316;-6.294;2023-01-15T12:13:59;26.65;;;10.75;;
41719;SDS011;27405;53.316;-6.294;2023-01-15T12:19:29;28.08;;;11.85;;
41719;SDS011;27405;53.316;-6.294;2023-01-15T12:28:11;21.23;;;10.13;;
41719;SDS011;27405;53.316;-6.294;2023-01-15T12:35:58;18.17;;;7.03;;
41719;SDS011;27405;53.316;-6.294;2023-01-15T12:38:54;20.30;;;7.97;;
41719;SDS011;27405;53.316;-6.294;2023-01-15T12:41:30;18.67;;;7.72;;
41719;SDS011;27405;53.316;-6.294;2023-01-15T12:44:20;22.67;;;8.75;;
41719;SDS011;27405;53.316;-6.294;2023-01-15T12:47:13;26.58;;;9.50;;
41719;SDS011;27405;53.316;-6.294;2023-01-15T12:49:48;23.90;;;9.32;;
41719;SDS011;27405;53.316;-6.294;2023-01-15T12:52:21;20.75;;;8.75;;
41719;SDS011;27405;53.316;-6.294;2023-01-15T12:57:35;19.33;;;8.85;;
41719;SDS011;27405;53.316;-6.294;2023-01-15T13:10:53;15.20;;;5.47;;
41719;SDS011;27405;53.316;-6.294;2023-01-15T13:13:19;17.50;;;5.88;;
41719;SDS011;27405;53.316;-6.294;2023-01-15T13:20:51;16.20;;;5.35;;
41719;SDS011;27405;53.316;-6.294;2023-01-15T13:23:26;16.17;;;5.50;;
41719;SDS011;27405;53.316;-6.294;2023-01-15T13:34:21;17.77;;;4.82;;
41719;SDS011;27405;53.316;-6.294;2023-01-15T13:37:08;15.98;;;4.95;;
41719;SDS011;27405;53.316;-6.294;2023-01-15T13:39:46;22.70;;;6.60;;
41719;SDS011;27405;53.316;-6.294;2023-01-15T13:42:15;16.52;;;6.45;;
41719;SDS011;27405;53.316;-6.294;2023-01-15T13:45:02;16.35;;;6.28;;
41719;SDS011;27405;53.316;-6.294;2023-01-15T13:47:54;22.85;;;7.32;;
41719;SDS011;27405;53.316;-6.294;2023-01-15T13:50:29;17.42;;;6.10;;
41719;SDS011;27405;53.316;-6.294;2023-01-15T13:55:58;16.25;;;5.07;;
41719;SDS011;27405;53.316;-6.294;2023-01-15T13:58:30;17.60;;;5.57;;
41719;SDS011;27405;53.316;-6.294;2023-01-15T14:09:02;16.95;;;4.65;;
41719;SDS011;27405;53.316;-6.294;2023-01-15T14:25:50;18.88;;;6.38;;
41719;SDS011;27405;53.316;-6.294;2023-01-15T14:32:06;8.82;;;3.72;;
41719;SDS011;27405;53.316;-6.294;2023-01-15T14:34:56;5.20;;;2.70;;
41719;SDS011;27405;53.316;-6.294;2023-01-15T14:37:42;5.25;;;2.40;;
41719;SDS011;27405;53.316;-6.294;2023-01-15T14:40:20;4.97;;;2.70;;
41719;SDS011;27405;53.316;-6.294;2023-01-15T14:42:49;7.93;;;3.47;;
41719;SDS011;27405;53.316;-6.294;2023-01-15T14:45:34;8.30;;;3.58;;
41719;SDS011;27405;53.316;-6.294;2023-01-15T14:48:14;10.52;;;4.40;;
41719;SDS011;27405;53.316;-6.294;2023-01-15T14:50:45;7.90;;;4.50;;
41719;SDS011;27405;53.316;-6.294;2023-01-15T14:55:49;14.00;;;6.13;;
41719;SDS011;27405;53.316;-6.294;2023-01-15T15:03:58;7.50;;;4.00;;
41719;SDS011;27405;53.316;-6.294;2023-01-15T15:06:30;11.57;;;4.75;;
41719;SDS011;27405;53.316;-6.294;2023-01-15T15:09:05;11.35;;;5.55;;
41719;SDS011;27405;53.316;-6.294;2023-01-15T15:23:30;9.80;;;5.20;;
41719;SDS011;27405;53.316;-6.294;2023-01-15T15:26:05;12.35;;;5.75;;
41719;SDS011;27405;53.316;-6.294;2023-01-15T15:29:00;9.60;;;5.22;;
41719;SDS011;27405;53.316;-6.294;2023-01-15T15:31:32;12.50;;;6.53;;
41719;SDS011;27405;53.316;-6.294;2023-01-15T15:34:00;12.23;;;6.13;;
41719;SDS011;27405;53.316;-6.294;2023-01-15T15:36:27;10.38;;;5.45;;
41719;SDS011;27405;53.316;-6.294;2023-01-15T15:39:03;11.57;;;5.90;;
41719;SDS011;27405;53.316;-6.294;2023-01-15T15:41:40;11.40;;;6.45;;
41719;SDS011;27405;53.316;-6.294;2023-01-15T15:44:40;9.65;;;5.32;;
41719;SDS011;27405;53.316;-6.294;2023-01-15T15:47:34;11.65;;;5.75;;
41719;SDS011;27405;53.316;-6.294;2023-01-15T15:50:25;11.90;;;6.43;;
41719;SDS011;27405;53.316;-6.294;2023-01-15T15:52:53;11.02;;;5.93;;
41719;SDS011;27405;53.316;-6.294;2023-01-15T15:55:20;10.38;;;5.82;;
41719;SDS011;27405;53.316;-6.294;2023-01-15T15:57:49;11.20;;;5.93;;
41719;SDS011;27405;53.316;-6.294;2023-01-15T16:00:33;13.75;;;6.72;;
41719;SDS011;27405;53.316;-6.294;2023-01-15T16:03:06;13.20;;;6.13;;
41719;SDS011;27405;53.316;-6.294;2023-01-15T16:05:41;13.55;;;6.68;;
41719;SDS011;27405;53.316;-6.294;2023-01-15T16:10:38;10.50;;;5.90;;
41719;SDS011;27405;53.316;-6.294;2023-01-15T16:13:05;10.15;;;5.00;;
41719;SDS011;27405;53.316;-6.294;2023-01-15T16:15:37;9.15;;;4.97;;
41719;SDS011;27405;53.316;-6.294;2023-01-15T16:18:05;8.63;;;4.97;;
41719;SDS011;27405;53.316;-6.294;2023-01-15T16:20:38;12.45;;;5.88;;
41719;SDS011;27405;53.316;-6.294;2023-01-15T16:23:04;14.75;;;6.53;;
41719;SDS011;27405;53.316;-6.294;2023-01-15T16:25:39;12.02;;;6.10;;
41719;SDS011;27405;53.316;-6.294;2023-01-15T16:28:16;12.30;;;6.30;;
41719;SDS011;27405;53.316;-6.294;2023-01-15T16:30:53;12.63;;;6.10;;
41719;SDS011;27405;53.316;-6.294;2023-01-15T16:33:24;20.23;;;9.02;;
41719;SDS011;27405;53.316;-6.294;2023-01-15T16:35:54;13.82;;;6.05;;
41719;SDS011;27405;53.316;-6.294;2023-01-15T16:38:23;19.65;;;9.07;;
41719;SDS011;27405;53.316;-6.294;2023-01-15T16:40:50;14.50;;;7.22;;
41719;SDS011;27405;53.316;-6.294;2023-01-15T16:43:17;12.85;;;6.93;;
41719;SDS011;27405;53.316;-6.294;2023-01-15T16:48:36;13.82;;;7.13;;
41719;SDS011;27405;53.316;-6.294;2023-01-15T16:54:00;12.00;;;4.95;;
41719;SDS011;27405;53.316;-6.294;2023-01-15T16:59:01;10.68;;;4.60;;
41719;SDS011;27405;53.316;-6.294;2023-01-15T17:01:50;11.32;;;4.88;;
41719;SDS011;27405;53.316;-6.294;2023-01-15T17:04:30;9.80;;;4.85;;
41719;SDS011;27405;53.316;-6.294;2023-01-15T17:09:26;11.45;;;5.95;;
41719;SDS011;27405;53.316;-6.294;2023-01-15T17:11:54;10.00;;;5.30;;
41719;SDS011;27405;53.316;-6.294;2023-01-15T17:14:24;11.90;;;5.70;;
41719;SDS011;27405;53.316;-6.294;2023-01-15T17:19:42;18.05;;;7.05;;
41719;SDS011;27405;53.316;-6.294;2023-01-15T17:22:13;11.48;;;5.03;;
41719;SDS011;27405;53.316;-6.294;2023-01-15T17:24:49;14.20;;;7.00;;
41719;SDS011;27405;53.316;-6.294;2023-01-15T17:27:22;26.58;;;14.60;;
41719;SDS011;27405;53.316;-6.294;2023-01-15T17:29:49;22.40;;;11.35;;
41719;SDS011;27405;53.316;-6.294;2023-01-15T17:32:16;23.45;;;12.05;;
41719;SDS011;27405;53.316;-6.294;2023-01-15T17:34:48;17.17;;;8.20;;